createdAt,value
2022-12-23T00:01:30.194Z,27.93
2022-12-23T00:03:58.909Z,29.17
2022-12-23T00:06:26.689Z,31.27
2022-12-23T00:08:58.844Z,28.03
2022-12-23T00:11:27.754Z,29.67
2022-12-23T00:14:20.383Z,26.87
2022-12-23T00:16:48.738Z,26.77
2022-12-23T00:19:15.394Z,25.37
2022-12-23T00:21:42.027Z,25.77
2022-12-23T00:24:09.285Z,21.63
2022-12-23T00:26:35.960Z,30.03
2022-12-23T00:29:02.629Z,22.47
2022-12-23T00:31:29.626Z,24.20
2022-12-23T00:33:56.347Z,22.60
2022-12-23T00:36:27.523Z,21.83
2022-12-23T00:39:14.313Z,19.60
2022-12-23T00:41:59.688Z,20.17
2022-12-23T00:44:27.098Z,19.90
2022-12-23T00:46:53.839Z,18.77
2022-12-23T00:49:39.817Z,19.37
2022-12-23T00:52:08.946Z,20.37
2022-12-23T00:54:35.723Z,22.80
2022-12-23T00:57:02.563Z,22.70
2022-12-23T00:59:29.405Z,22.63
2022-12-23T01:02:15.162Z,19.60
2022-12-23T01:05:00.862Z,21.73
2022-12-23T01:07:27.860Z,28.23
2022-12-23T01:09:54.623Z,29.87
2022-12-23T01:12:21.542Z,31.00
2022-12-23T01:14:49.289Z,23.77
2022-12-23T01:17:16.103Z,18.30
2022-12-23T01:19:42.846Z,13.97
2022-12-23T01:22:09.924Z,13.17
2022-12-23T01:24:36.699Z,13.17
2022-12-23T01:27:03.846Z,14.00
2022-12-23T01:29:30.793Z,15.60
2022-12-23T01:31:57.644Z,17.50
2022-12-23T01:34:24.507Z,31.77
2022-12-23T01:36:51.500Z,33.40
2022-12-23T01:39:18.383Z,26.03
2022-12-23T01:42:03.713Z,23.87
2022-12-23T01:44:54.966Z,18.83
2022-12-23T01:47:28.123Z,21.53
2022-12-23T01:50:12.766Z,20.43
2022-12-23T01:53:07.331Z,18.95
2022-12-23T01:56:01.476Z,16.10
2022-12-23T01:58:35.030Z,16.20
2022-12-23T02:01:25.314Z,17.83
2022-12-23T02:03:56.467Z,17.83
2022-12-23T02:06:49.735Z,23.83
2022-12-23T02:09:19.500Z,25.30
2022-12-23T02:11:46.119Z,25.93
2022-12-23T02:14:50.049Z,22.80
2022-12-23T02:17:25.958Z,20.73
2022-12-23T02:20:11.323Z,18.63
2022-12-23T02:22:56.219Z,14.43
2022-12-23T02:25:23.494Z,15.60
2022-12-23T02:27:57.088Z,14.97
2022-12-23T02:30:39.427Z,17.97
2022-12-23T02:33:31.411Z,18.47
2022-12-23T02:36:02.923Z,18.87
2022-12-23T02:38:43.620Z,23.17
2022-12-23T02:41:32.168Z,19.80
2022-12-23T02:44:08.418Z,17.53
2022-12-23T02:46:56.144Z,20.83
2022-12-23T02:49:30.255Z,16.67
2022-12-23T02:51:59.802Z,16.67
2022-12-23T02:54:32.511Z,17.23
2022-12-23T02:57:03.716Z,16.87
2022-12-23T02:59:37.428Z,16.63
2022-12-23T03:02:04.354Z,19.50
2022-12-23T03:04:31.478Z,18.73
2022-12-23T03:07:04.359Z,18.63
2022-12-23T03:09:51.947Z,19.13
2022-12-23T03:12:47.759Z,16.55
2022-12-23T03:15:35.608Z,15.97
2022-12-23T03:18:16.980Z,18.23
2022-12-23T03:20:54.821Z,24.10
2022-12-23T03:23:28.706Z,23.77
2022-12-23T03:25:55.399Z,25.77
2022-12-23T03:28:37.683Z,24.53
2022-12-23T03:31:11.137Z,21.27
2022-12-23T03:33:42.542Z,23.53
2022-12-23T03:36:40.841Z,19.83
2022-12-23T03:39:13.129Z,21.43
2022-12-23T03:41:45.031Z,25.20
2022-12-23T03:44:32.010Z,23.73
2022-12-23T03:47:11.393Z,23.07
2022-12-23T03:49:56.084Z,27.43
2022-12-23T03:52:31.369Z,34.28
2022-12-23T03:55:03.773Z,28.00
2022-12-23T03:57:58.853Z,28.40
2022-12-23T04:00:30.979Z,33.72
2022-12-23T04:03:00.052Z,48.90
2022-12-23T04:05:30.383Z,40.87
2022-12-23T04:08:23.584Z,26.87
2022-12-23T04:10:50.424Z,17.83
2022-12-23T04:13:17.109Z,16.97
2022-12-23T04:15:44.305Z,19.03
2022-12-23T04:18:11.619Z,21.53
2022-12-23T04:20:38.467Z,25.73
2022-12-23T04:23:05.533Z,28.90
2022-12-23T04:25:32.351Z,30.77
2022-12-23T04:27:59.027Z,34.83
2022-12-23T04:30:33.306Z,27.70
2022-12-23T04:33:00.959Z,41.23
2022-12-23T04:35:27.995Z,43.20
2022-12-23T04:37:54.698Z,36.97
2022-12-23T04:40:21.508Z,32.37
2022-12-23T04:42:48.250Z,39.03
2022-12-23T04:45:15.188Z,41.00
2022-12-23T04:47:41.812Z,36.60
2022-12-23T04:50:13.483Z,32.87
2022-12-23T04:52:40.201Z,28.93
2022-12-23T04:55:07.455Z,24.63
2022-12-23T04:57:34.599Z,28.63
2022-12-23T05:00:01.258Z,32.50
2022-12-23T05:02:28.023Z,28.40
2022-12-23T05:04:55.029Z,23.70
2022-12-23T05:07:21.657Z,28.33
2022-12-23T05:09:48.314Z,28.83
2022-12-23T05:12:15.196Z,33.60
2022-12-23T05:14:41.825Z,37.67
2022-12-23T05:17:08.580Z,37.57
2022-12-23T05:19:35.762Z,42.50
2022-12-23T05:22:02.426Z,37.80
2022-12-23T05:24:29.091Z,44.63
2022-12-23T05:27:00.131Z,70.77
2022-12-23T05:29:27.393Z,53.20
2022-12-23T05:31:54.352Z,40.63
2022-12-23T05:34:21.977Z,29.30
2022-12-23T05:36:48.634Z,33.83
2022-12-23T05:39:15.441Z,31.33
2022-12-23T05:41:42.220Z,32.73
2022-12-23T05:44:08.915Z,33.20
2022-12-23T05:46:35.675Z,33.53
2022-12-23T05:49:02.620Z,37.27
2022-12-23T05:51:29.304Z,40.63
2022-12-23T05:53:56.083Z,41.93
2022-12-23T05:56:22.946Z,53.23
2022-12-23T05:58:49.607Z,57.10
2022-12-23T06:01:16.307Z,48.10
2022-12-23T06:03:43.449Z,53.00
2022-12-23T06:06:10.178Z,53.67
2022-12-23T06:08:36.927Z,54.17
2022-12-23T06:11:06.686Z,52.83
2022-12-23T06:13:33.381Z,51.20
2022-12-23T06:16:00.171Z,59.93
2022-12-23T06:18:27.087Z,59.07
2022-12-23T06:20:53.691Z,53.50
2022-12-23T06:23:20.358Z,57.70
2022-12-23T06:25:47.077Z,63.53
2022-12-23T06:28:13.894Z,54.87
2022-12-23T06:30:40.623Z,58.73
2022-12-23T06:33:07.456Z,52.97
2022-12-23T06:35:34.077Z,53.40
2022-12-23T06:38:00.832Z,53.70
2022-12-23T06:40:29.431Z,60.50
2022-12-23T06:42:56.088Z,68.53
2022-12-23T06:45:22.776Z,70.77
2022-12-23T06:47:49.520Z,74.63
2022-12-23T06:50:16.306Z,88.67
2022-12-23T06:52:43.009Z,83.50
2022-12-23T06:55:09.952Z,80.10
2022-12-23T06:57:36.747Z,79.70
2022-12-23T07:00:05.164Z,83.93
2022-12-23T07:02:32.108Z,83.73
2022-12-23T07:04:58.996Z,72.37
2022-12-23T07:07:25.655Z,76.37
2022-12-23T07:09:52.885Z,60.07
2022-12-23T07:12:19.515Z,72.50
2022-12-23T07:14:46.148Z,64.03
2022-12-23T07:17:12.938Z,79.72
2022-12-23T07:19:41.748Z,90.50
2022-12-23T07:22:10.193Z,89.47
2022-12-23T07:24:37.777Z,84.85
2022-12-23T07:27:04.856Z,89.28
2022-12-23T07:29:31.592Z,66.93
2022-12-23T07:31:58.438Z,68.72
2022-12-23T07:34:25.124Z,65.20
2022-12-23T07:36:51.816Z,69.50
2022-12-23T07:39:18.523Z,64.40
2022-12-23T07:41:45.248Z,59.95
2022-12-23T07:44:11.955Z,57.55
2022-12-23T07:46:38.900Z,52.35
2022-12-23T07:49:05.646Z,55.95
2022-12-23T07:51:32.288Z,56.08
2022-12-23T07:53:59.168Z,66.63
2022-12-23T07:56:26.461Z,67.07
2022-12-23T07:58:53.995Z,63.10
2022-12-23T08:01:22.129Z,56.95
2022-12-23T08:03:49.741Z,58.25
2022-12-23T08:06:17.067Z,62.70
2022-12-23T08:08:46.040Z,67.70
2022-12-23T08:11:14.501Z,60.70
2022-12-23T08:13:42.768Z,54.38
2022-12-23T08:16:11.108Z,53.35
2022-12-23T08:18:40.078Z,54.20
2022-12-23T08:21:11.913Z,58.58
2022-12-23T08:23:38.675Z,64.70
2022-12-23T08:26:12.575Z,49.75
2022-12-23T08:28:41.056Z,46.70
2022-12-23T08:31:17.862Z,73.03
2022-12-23T08:33:46.997Z,54.95
2022-12-23T08:36:22.392Z,52.58
2022-12-23T08:38:50.798Z,42.00
2022-12-23T08:41:20.944Z,39.53
2022-12-23T08:43:47.917Z,44.30
2022-12-23T08:46:15.061Z,60.63
2022-12-23T08:48:48.690Z,59.03
2022-12-23T08:51:18.615Z,48.53
2022-12-23T08:53:45.921Z,45.20
2022-12-23T08:56:23.688Z,47.35
2022-12-23T08:58:52.828Z,41.47
2022-12-23T09:01:22.766Z,39.33
2022-12-23T09:03:51.117Z,48.10
2022-12-23T09:06:28.278Z,48.70
2022-12-23T09:08:56.277Z,33.35
2022-12-23T09:11:25.520Z,30.65
2022-12-23T09:13:52.468Z,34.28
2022-12-23T09:16:20.301Z,29.52
2022-12-23T09:18:47.115Z,30.10
2022-12-23T09:21:17.999Z,33.30
2022-12-23T09:23:44.916Z,28.70
2022-12-23T09:26:29.324Z,23.15
2022-12-23T09:28:57.050Z,20.00
2022-12-23T09:31:24.761Z,14.60
2022-12-23T09:33:53.840Z,12.07
2022-12-23T09:36:22.653Z,9.40
2022-12-23T09:38:55.279Z,7.82
2022-12-23T09:41:31.625Z,14.18
2022-12-23T09:44:35.182Z,18.50
2022-12-23T09:47:05.963Z,9.85
2022-12-23T09:49:34.322Z,10.07
2022-12-23T09:52:05.589Z,13.50
2022-12-23T09:54:58.351Z,13.23
2022-12-23T09:57:40.339Z,14.25
2022-12-23T10:00:13.126Z,13.85
2022-12-23T10:03:04.732Z,15.93
2022-12-23T10:05:49.567Z,13.20
2022-12-23T10:08:39.596Z,12.40
2022-12-23T10:11:21.189Z,9.65
2022-12-23T10:13:50.371Z,8.40
2022-12-23T10:16:23.328Z,10.45
2022-12-23T10:19:20.561Z,8.15
2022-12-23T10:21:55.992Z,9.30
2022-12-23T10:24:33.424Z,10.73
2022-12-23T10:27:11.960Z,10.07
2022-12-23T10:29:38.680Z,11.10
2022-12-23T10:32:27.971Z,12.68
2022-12-23T10:35:26.671Z,11.98
2022-12-23T10:38:03.506Z,12.55
2022-12-23T10:40:45.588Z,15.32
2022-12-23T10:43:15.153Z,47.15
2022-12-23T10:46:13.974Z,19.85
2022-12-23T10:48:40.612Z,14.30
2022-12-23T10:51:15.253Z,13.45
2022-12-23T10:54:04.823Z,12.05
2022-12-23T10:56:32.016Z,9.10
2022-12-23T10:59:01.373Z,10.82
2022-12-23T11:01:31.339Z,26.15
2022-12-23T11:04:01.743Z,37.42
2022-12-23T11:06:36.560Z,14.80
2022-12-23T11:09:05.608Z,8.70
2022-12-23T11:12:01.966Z,6.97
2022-12-23T11:14:33.086Z,8.15
2022-12-23T11:17:00.343Z,7.93
2022-12-23T11:19:27.170Z,7.35
2022-12-23T11:21:59.580Z,7.55
2022-12-23T11:24:39.556Z,6.65
2022-12-23T11:27:16.381Z,6.13
2022-12-23T11:32:22.593Z,5.68
2022-12-23T11:34:50.843Z,9.93
2022-12-23T11:37:36.970Z,11.20
2022-12-23T11:40:07.545Z,9.57
2022-12-23T11:42:35.077Z,5.50
2022-12-23T11:45:06.869Z,5.45
2022-12-23T11:47:41.042Z,5.90
2022-12-23T11:50:29.393Z,8.38
2022-12-23T11:53:04.468Z,13.55
2022-12-23T11:55:33.014Z,16.45
2022-12-23T11:58:02.527Z,7.60
2022-12-23T12:00:42.827Z,5.20
2022-12-23T12:03:19.211Z,7.65
2022-12-23T12:05:55.533Z,8.18
2022-12-23T12:08:28.287Z,8.07
2022-12-23T12:11:05.446Z,9.65
2022-12-23T12:13:37.838Z,10.95
2022-12-23T12:16:30.829Z,9.82
2022-12-23T12:19:04.143Z,9.02
2022-12-23T12:21:37.759Z,53.20
2022-12-23T12:24:19.198Z,9.52
2022-12-23T12:26:51.655Z,10.07
2022-12-23T12:29:39.321Z,8.73
2022-12-23T12:32:17.325Z,9.05
2022-12-23T12:35:01.114Z,22.85
2022-12-23T12:37:43.119Z,32.08
2022-12-23T12:40:29.618Z,7.85
2022-12-23T12:43:34.760Z,8.20
2022-12-23T12:46:23.161Z,7.10
2022-12-23T12:49:25.221Z,6.57
2022-12-23T12:52:03.608Z,5.03
2022-12-23T12:54:53.047Z,4.60
2022-12-23T12:57:22.659Z,12.18
2022-12-23T12:59:56.388Z,10.95
2022-12-23T13:02:56.001Z,6.82
2022-12-23T13:05:41.400Z,10.70
2022-12-23T13:08:29.145Z,11.88
2022-12-23T13:11:05.809Z,12.27
2022-12-23T13:13:37.627Z,9.07
2022-12-23T13:16:38.271Z,9.82
2022-12-23T13:19:27.217Z,6.97
2022-12-23T13:22:14.153Z,10.57
2022-12-23T13:24:40.775Z,4.43
2022-12-23T13:27:46.927Z,4.43
2022-12-23T13:30:20.106Z,3.45
2022-12-23T13:32:56.825Z,4.18
2022-12-23T13:35:32.230Z,3.17
2022-12-23T13:38:17.764Z,3.85
2022-12-23T13:43:41.923Z,4.95
2022-12-23T13:46:35.726Z,27.70
2022-12-23T13:49:11.478Z,9.95
2022-12-23T13:51:52.294Z,8.23
2022-12-23T13:54:25.016Z,8.55
2022-12-23T13:57:10.287Z,14.07
2022-12-23T14:00:02.973Z,7.65
2022-12-23T14:02:37.651Z,8.27
2022-12-23T14:05:09.304Z,10.70
2022-12-23T14:07:38.486Z,9.43
2022-12-23T14:10:20.167Z,5.72
2022-12-23T14:12:47.243Z,4.05
2022-12-23T14:15:22.504Z,4.60
2022-12-23T14:18:10.793Z,17.77
2022-12-23T14:20:43.570Z,19.77
2022-12-23T14:23:28.541Z,15.30
2022-12-23T14:26:18.364Z,22.55
2022-12-23T14:29:21.592Z,18.58
2022-12-23T14:31:57.424Z,9.25
2022-12-23T14:34:31.677Z,13.93
2022-12-23T14:37:20.574Z,14.23
2022-12-23T14:39:48.641Z,26.48
2022-12-23T14:42:41.259Z,38.55
2022-12-23T14:45:41.592Z,49.13
2022-12-23T14:48:33.385Z,51.35
2022-12-23T14:51:00.045Z,56.63
2022-12-23T14:53:29.785Z,34.95
2022-12-23T14:56:21.101Z,46.17
2022-12-23T14:59:18.713Z,221.13
2022-12-23T15:01:54.263Z,74.35
2022-12-23T15:04:41.934Z,66.75
2022-12-23T15:07:24.681Z,66.75
2022-12-23T15:10:00.754Z,75.25
2022-12-23T15:12:36.489Z,74.68
2022-12-23T15:15:07.628Z,82.55
2022-12-23T15:17:37.028Z,93.75
2022-12-23T15:20:11.357Z,96.72
2022-12-23T15:22:39.791Z,100.95
2022-12-23T15:25:24.117Z,118.50
2022-12-23T15:27:55.910Z,88.47
2022-12-23T15:30:28.239Z,74.68
2022-12-23T15:33:00.212Z,70.25
2022-12-23T15:35:33.593Z,55.75
2022-12-23T15:38:02.255Z,36.95
2022-12-23T15:40:35.729Z,64.47
2022-12-23T15:43:12.621Z,82.65
2022-12-23T15:45:42.221Z,70.30
2022-12-23T15:48:31.271Z,68.57
2022-12-23T15:51:49.609Z,77.20
2022-12-23T15:54:31.600Z,75.30
2022-12-23T15:57:01.285Z,68.75
2022-12-23T15:59:33.162Z,62.45
2022-12-23T16:02:32.579Z,64.32
2022-12-23T16:05:03.015Z,76.22
2022-12-23T16:07:40.711Z,96.32
2022-12-23T16:10:19.606Z,85.57
2022-12-23T16:12:49.335Z,88.47
2022-12-23T16:15:27.216Z,80.60
2022-12-23T16:18:20.075Z,82.10
2022-12-23T16:20:53.762Z,99.50
2022-12-23T16:23:21.456Z,100.05
2022-12-23T16:25:51.155Z,95.70
2022-12-23T16:28:26.691Z,93.57
2022-12-23T16:30:56.643Z,98.55
2022-12-23T16:33:26.378Z,136.48
2022-12-23T16:35:55.039Z,367.05
2022-12-23T16:38:26.606Z,163.00
2022-12-23T16:40:55.714Z,132.95
2022-12-23T16:43:24.275Z,127.97
2022-12-23T16:45:54.733Z,118.90
2022-12-23T16:48:30.799Z,110.18
2022-12-23T16:50:58.160Z,121.75
2022-12-23T16:53:24.961Z,128.88
2022-12-23T16:55:56.871Z,116.25
2022-12-23T16:58:27.096Z,90.10
2022-12-23T17:00:53.913Z,91.47
2022-12-23T17:03:21.073Z,105.40
2022-12-23T17:05:48.439Z,88.20
2022-12-23T17:08:15.467Z,97.40
2022-12-23T17:10:44.644Z,92.43
2022-12-23T17:13:18.585Z,61.58
2022-12-23T17:15:45.569Z,68.78
2022-12-23T17:18:14.227Z,92.10
2022-12-23T17:20:42.274Z,93.28
2022-12-23T17:23:24.148Z,90.43
2022-12-23T17:25:51.112Z,78.28
2022-12-23T17:28:17.836Z,83.80
2022-12-23T17:30:44.708Z,118.80
2022-12-23T17:33:19.584Z,92.35
2022-12-23T17:35:46.431Z,88.80
2022-12-23T17:38:14.699Z,109.57
2022-12-23T17:40:43.732Z,105.38
2022-12-23T17:43:18.067Z,113.18
2022-12-23T17:45:45.900Z,126.38
2022-12-23T17:48:19.931Z,115.20
2022-12-23T17:50:48.185Z,110.22
2022-12-23T17:53:16.659Z,106.80
2022-12-23T17:55:43.897Z,104.00
2022-12-23T17:58:10.896Z,114.07
2022-12-23T18:00:38.599Z,113.93
2022-12-23T18:03:21.561Z,98.68
2022-12-23T18:05:48.266Z,95.85
2022-12-23T18:08:15.439Z,131.32
2022-12-23T18:10:42.505Z,114.57
2022-12-23T18:13:15.656Z,118.23
2022-12-23T18:15:43.824Z,128.98
2022-12-23T18:18:24.147Z,122.82
2022-12-23T18:20:57.293Z,124.10
2022-12-23T18:23:32.301Z,113.30
2022-12-23T18:25:59.905Z,113.97
2022-12-23T18:28:27.369Z,127.05
2022-12-23T18:30:56.641Z,126.72
2022-12-23T18:33:28.924Z,126.47
2022-12-23T18:35:56.112Z,112.70
2022-12-23T18:38:23.061Z,115.38
2022-12-23T18:40:52.715Z,110.75
2022-12-23T18:43:22.017Z,102.75
2022-12-23T18:45:53.297Z,96.80
2022-12-23T18:48:21.781Z,88.00
2022-12-23T18:50:48.655Z,92.50
2022-12-23T18:53:24.704Z,87.25
2022-12-23T18:55:52.825Z,60.03
2022-12-23T18:58:20.162Z,84.07
2022-12-23T19:00:48.802Z,94.73
2022-12-23T19:03:27.371Z,94.97
2022-12-23T19:05:56.066Z,93.27
2022-12-23T19:08:26.979Z,97.13
2022-12-23T19:10:54.972Z,102.23
2022-12-23T19:13:21.997Z,103.80
2022-12-23T19:15:48.949Z,98.13
2022-12-23T19:18:18.987Z,98.77
2022-12-23T19:20:47.257Z,116.07
2022-12-23T19:23:14.621Z,120.33
2022-12-23T19:25:43.522Z,121.07
2022-12-23T19:28:13.300Z,117.47
2022-12-23T19:30:41.682Z,116.73
2022-12-23T19:33:09.062Z,107.40
2022-12-23T19:35:35.755Z,115.33
2022-12-23T19:38:02.364Z,87.53
2022-12-23T19:40:29.289Z,71.53
2022-12-23T19:42:56.655Z,68.90
2022-12-23T19:45:23.349Z,60.27
2022-12-23T19:47:50.073Z,61.03
2022-12-23T19:50:17.179Z,71.10
2022-12-23T19:52:43.833Z,69.30
2022-12-23T19:55:10.525Z,81.53
2022-12-23T19:57:37.515Z,87.77
2022-12-23T20:00:05.455Z,86.87
2022-12-23T20:02:32.179Z,104.27
2022-12-23T20:04:58.903Z,91.00
2022-12-23T20:07:25.556Z,96.50
2022-12-23T20:09:52.544Z,98.87
2022-12-23T20:12:19.570Z,59.30
2022-12-23T20:14:46.269Z,64.00
2022-12-23T20:17:12.938Z,57.67
2022-12-23T20:19:45.816Z,63.23
2022-12-23T20:22:13.172Z,60.07
2022-12-23T20:24:40.611Z,54.17
2022-12-23T20:27:11.341Z,68.10
2022-12-23T20:29:39.328Z,52.27
2022-12-23T20:32:06.355Z,79.50
2022-12-23T20:34:38.670Z,83.80
2022-12-23T20:37:06.760Z,72.57
2022-12-23T20:39:33.531Z,76.93
2022-12-23T20:42:00.213Z,77.30
2022-12-23T20:44:36.643Z,87.43
2022-12-23T20:47:07.257Z,90.10
2022-12-23T20:49:34.266Z,126.83
2022-12-23T20:52:01.327Z,75.27
2022-12-23T20:54:33.203Z,71.97
2022-12-23T20:57:01.444Z,49.43
2022-12-23T20:59:28.273Z,42.83
2022-12-23T21:01:55.132Z,46.23
2022-12-23T21:04:22.913Z,54.80
2022-12-23T21:06:49.902Z,54.57
2022-12-23T21:09:17.077Z,61.03
2022-12-23T21:11:46.197Z,79.57
2022-12-23T21:14:13.630Z,77.33
2022-12-23T21:16:40.929Z,77.37
2022-12-23T21:19:18.073Z,78.17
2022-12-23T21:21:45.800Z,81.33
2022-12-23T21:24:13.114Z,92.67
2022-12-23T21:26:40.483Z,57.50
2022-12-23T21:29:09.377Z,63.03
2022-12-23T21:31:39.062Z,53.10
2022-12-23T21:34:06.629Z,43.80
2022-12-23T21:36:37.124Z,89.73
2022-12-23T21:39:05.323Z,54.83
2022-12-23T21:41:37.811Z,53.07
2022-12-23T21:44:05.228Z,51.37
2022-12-23T21:46:31.956Z,67.03
2022-12-23T21:48:59.470Z,57.57
2022-12-23T21:51:39.026Z,71.23
2022-12-23T21:54:07.531Z,72.67
2022-12-23T21:56:34.385Z,65.57
2022-12-23T21:59:03.548Z,67.53
2022-12-23T22:01:31.008Z,62.77
2022-12-23T22:03:57.975Z,63.70
2022-12-23T22:06:34.486Z,53.40
2022-12-23T22:09:01.238Z,37.47
2022-12-23T22:11:30.348Z,48.90
2022-12-23T22:13:58.610Z,44.30
2022-12-23T22:16:27.631Z,55.00
2022-12-23T22:18:55.722Z,57.80
2022-12-23T22:21:24.567Z,46.63
2022-12-23T22:23:52.687Z,34.90
2022-12-23T22:26:25.851Z,30.80
2022-12-23T22:28:54.591Z,31.60
2022-12-23T22:31:24.304Z,36.00
2022-12-23T22:33:51.038Z,39.60
2022-12-23T22:36:18.140Z,43.87
2022-12-23T22:38:54.741Z,41.63
2022-12-23T22:41:22.030Z,37.63
2022-12-23T22:43:49.124Z,39.13
2022-12-23T22:46:17.023Z,38.47
2022-12-23T22:48:44.811Z,40.40
2022-12-23T22:51:22.745Z,40.83
2022-12-23T22:53:50.022Z,38.10
2022-12-23T22:56:18.248Z,42.27
2022-12-23T22:58:45.203Z,42.43
2022-12-23T23:01:28.587Z,43.80
2022-12-23T23:03:57.842Z,44.07
2022-12-23T23:06:29.522Z,28.73
2022-12-23T23:08:57.296Z,24.27
2022-12-23T23:11:25.270Z,33.27
2022-12-23T23:13:52.182Z,38.27
2022-12-23T23:16:19.173Z,36.80
2022-12-23T23:18:46.231Z,46.07
2022-12-23T23:21:14.188Z,44.73
2022-12-23T23:23:41.072Z,54.03
2022-12-23T23:26:11.059Z,53.23
2022-12-23T23:28:39.716Z,54.40
2022-12-23T23:31:39.613Z,98.17
2022-12-23T23:33:53.828Z,59.63
2022-12-23T23:36:20.587Z,46.43
2022-12-23T23:38:47.296Z,36.23
2022-12-23T23:41:18.901Z,37.87
2022-12-23T23:43:49.513Z,31.80
2022-12-23T23:46:16.266Z,29.83
2022-12-23T23:48:43.007Z,31.97
2022-12-23T23:51:09.688Z,35.43
2022-12-23T23:53:36.452Z,46.47
2022-12-23T23:56:06.434Z,56.90
2022-12-23T23:58:34.838Z,56.50
